Time;durP1;ratioP1;P1;durP2;ratioP2;P2;SDS_P1;SDS_P2;PMS_P1;PMS_P2;Temp;Humidity;BMP_temperature;BMP_pressure;BME280_temperature;BME280_humidity;BME280_pressure;Samples;Min_cycle;Max_cycle;Signal;HPM_P1;HPM_P2
2022/07/30 00:00:49;;;;;;;7.25;1.85;;;17.20;99.90;;;16.23;100.00;101471.03;4947536;28;20616;-78
2022/07/30 00:03:14;;;;;;;;;;;17.20;99.90;;;16.17;100.00;101469.56;4988709;28;20046;-79
2022/07/30 00:05:40;;;;;;;8.48;1.40;;;17.10;99.90;;;16.14;100.00;101472.41;4989405;28;19928;-77
2022/07/30 00:08:06;;;;;;;;;;;17.10;99.90;;;16.10;100.00;101475.34;4987089;28;20119;-78
2022/07/30 00:10:31;;;;;;;9.75;1.83;;;17.00;99.90;;;16.06;100.00;101474.66;5019609;28;20411;-77
2022/07/30 00:13:02;;;;;;;;;;;17.10;99.90;;;16.06;100.00;101469.34;4944235;28;20084;-79
2022/07/30 00:15:28;;;;;;;6.57;1.50;;;17.00;99.90;;;16.00;100.00;101472.34;4964883;28;19940;-79
2022/07/30 00:17:53;;;;;;;7.15;2.15;;;17.00;99.90;;;16.02;100.00;101466.97;4987734;28;20492;-78
2022/07/30 00:20:19;;;;;;;11.95;1.73;;;17.00;99.90;;;16.04;100.00;101471.22;4978903;28;20125;-78
2022/07/30 00:22:45;;;;;;;;;;;17.00;99.90;;;15.97;100.00;101467.22;4999137;28;20119;-79
2022/07/30 00:25:11;;;;;;;8.88;1.70;;;16.90;99.90;;;15.97;100.00;101464.56;4998332;28;20486;-78
2022/07/30 00:27:40;;;;;;;5.47;1.58;;;16.90;99.90;;;15.94;100.00;101464.75;4998253;28;20037;-77
2022/07/30 00:30:06;;;;;;;4.80;1.58;;;16.90;99.90;;;15.92;100.00;101454.22;4967363;28;20030;-78
2022/07/30 00:32:32;;;;;;;6.75;1.50;;;16.90;99.90;;;15.92;100.00;101453.38;5008745;28;20029;-78
2022/07/30 00:34:58;;;;;;;7.63;1.75;;;16.90;99.90;;;15.96;100.00;101457.53;4989183;28;21157;-77
2022/07/30 00:37:24;;;;;;;3.97;1.52;;;16.80;99.90;;;15.88;100.00;101455.31;4996346;28;20763;-78
2022/07/30 00:39:49;;;;;;;;;;;16.80;99.90;;;15.84;100.00;101452.94;4988771;28;20406;-77
2022/07/30 00:42:19;;;;;;;9.48;1.55;;;16.80;99.90;;;15.79;100.00;101453.22;5002655;28;19919;-76
2022/07/30 00:44:45;;;;;;;5.25;1.40;;;16.70;99.90;;;15.75;100.00;101455.16;4970981;28;20479;-77
2022/07/30 00:47:10;;;;;;;9.23;1.85;;;16.60;99.90;;;15.63;100.00;101453.16;4993233;28;20109;-77
2022/07/30 00:49:36;;;;;;;;;;;16.60;99.90;;;15.55;100.00;101445.66;4973677;28;20053;-78
2022/07/30 00:52:02;;;;;;;5.97;1.60;;;16.60;99.90;;;15.53;100.00;101446.69;4998523;28;20308;-78
2022/07/30 00:54:28;;;;;;;7.13;1.88;;;16.50;99.90;;;15.45;100.00;101441.78;4975067;28;20033;-78
2022/07/30 00:56:54;;;;;;;7.05;1.55;;;16.50;99.90;;;15.41;100.00;101442.06;4983758;28;20057;-78
2022/07/30 00:59:22;;;;;;;;;;;16.50;99.90;;;15.34;100.00;101441.53;4981665;28;22157;-77
2022/07/30 01:01:48;;;;;;;5.15;1.73;;;16.40;99.90;;;15.30;100.00;101434.69;4972328;28;20027;-77
2022/07/30 01:04:14;;;;;;;5.97;1.77;;;16.30;99.90;;;15.33;100.00;101437.16;4966092;28;20468;-78
2022/07/30 01:06:40;;;;;;;6.10;1.48;;;16.30;99.90;;;15.30;100.00;101435.53;5002138;28;20041;-78
2022/07/30 01:09:07;;;;;;;;;;;16.30;99.90;;;15.14;100.00;101427.56;4964984;28;20502;-77
2022/07/30 01:11:41;;;;;;;6.40;2.00;;;16.20;99.90;;;15.15;100.00;101420.47;4991287;28;20373;-77
2022/07/30 01:14:09;;;;;;;11.98;1.70;;;16.10;99.90;;;15.15;100.00;101425.75;4956327;28;20043;-78
2022/07/30 01:16:37;;;;;;;7.32;1.48;;;16.10;99.90;;;15.12;100.00;101431.25;4997281;28;20029;-78
2022/07/30 01:22:24;;;;;;;7.40;1.77;;;16.10;99.90;;;15.09;100.00;101426.94;4979776;28;20517;-77
2022/07/30 01:25:11;;;;;;;7.32;1.67;;;16.10;99.90;;;15.07;100.00;101426.16;4971125;28;20498;-77
2022/07/30 01:27:49;;;;;;;2.75;1.13;;;16.00;99.90;;;15.00;100.00;101416.84;4966067;28;20033;-77
2022/07/30 01:30:22;;;;;;;4.25;1.80;;;15.90;99.90;;;14.96;100.00;101418.78;5000221;28;20044;-77
2022/07/30 01:32:49;;;;;;;5.40;1.80;;;15.90;99.90;;;14.92;100.00;101411.09;4979553;28;20037;-77
2022/07/30 01:35:18;;;;;;;5.85;1.60;;;15.90;99.90;;;14.91;100.00;101415.53;4944652;28;20037;-77
2022/07/30 01:37:51;;;;;;;6.25;1.73;;;15.90;99.90;;;14.89;100.00;101414.78;4992219;28;20529;-78
2022/07/30 01:40:18;;;;;;;4.88;1.42;;;15.80;99.90;;;14.83;100.00;101406.28;4962790;28;20044;-77
2022/07/30 01:42:55;;;;;;;4.47;1.60;;;15.80;99.90;;;14.79;100.00;101416.19;4959440;28;20639;-79
2022/07/30 01:45:24;;;;;;;9.30;1.70;;;15.80;99.90;;;14.76;100.00;101409.25;4979603;28;20038;-77
2022/07/30 01:47:59;;;;;;;8.35;1.77;;;15.70;99.90;;;14.73;100.00;101413.91;4983533;28;20034;-77
2022/07/30 01:50:27;;;;;;;7.50;1.70;;;15.70;99.90;;;14.70;100.00;101400.78;4968573;28;20080;-77
2022/07/30 01:52:55;;;;;;;8.00;1.90;;;15.60;99.90;;;14.66;100.00;101400.09;4993630;28;20049;-77
2022/07/30 01:55:38;;;;;;;9.73;2.20;;;15.60;99.90;;;14.59;100.00;101396.06;4978528;28;20029;-77
2022/07/30 01:58:08;;;;;;;3.63;1.60;;;15.60;99.90;;;14.54;100.00;101398.91;5017993;28;20495;-79
2022/07/30 02:00:40;;;;;;;10.13;1.90;;;15.50;99.90;;;14.51;100.00;101401.75;4963784;28;20413;-77
2022/07/30 02:03:09;;;;;;;4.35;1.67;;;15.40;99.90;;;14.44;100.00;101396.81;4986289;28;20030;-77
2022/07/30 02:05:37;;;;;;;8.02;1.73;;;15.40;99.90;;;14.41;100.00;101408.44;4970790;28;20038;-78
2022/07/30 02:08:14;;;;;;;3.15;1.70;;;15.40;99.90;;;14.34;100.00;101410.56;4980213;28;20040;-77
2022/07/30 02:11:05;;;;;;;5.53;1.60;;;15.30;99.90;;;14.26;100.00;101401.28;5014198;28;20029;-77
2022/07/30 02:13:51;;;;;;;4.50;2.15;;;15.30;99.90;;;14.18;100.00;101406.13;4998626;28;20029;-77
2022/07/30 02:16:29;;;;;;;8.00;1.95;;;15.20;99.90;;;14.10;100.00;101406.50;4985715;28;20029;-77
2022/07/30 02:19:02;;;;;;;5.47;2.00;;;15.10;99.90;;;14.05;100.00;101405.88;4979754;28;20494;-78
2022/07/30 02:21:33;;;;;;;7.80;1.88;;;15.10;99.90;;;13.99;100.00;101409.69;4992672;28;20037;-80
2022/07/30 02:24:02;;;;;;;4.03;1.88;;;15.00;99.90;;;13.96;100.00;101415.16;5007967;28;20045;-77
2022/07/30 02:26:30;;;;;;;4.03;1.77;;;15.00;99.90;;;13.89;100.00;101405.81;4964035;28;20047;-77
2022/07/30 02:29:00;;;;;;;9.13;2.00;;;14.90;99.90;;;13.82;100.00;101407.91;4943698;28;20061;-77
2022/07/30 02:31:28;;;;;;;6.72;1.70;;;14.80;99.90;;;13.73;100.00;101419.75;4992231;28;20068;-78
2022/07/30 02:33:59;;;;;;;7.90;1.83;;;14.80;99.90;;;13.69;100.00;101417.34;4980440;28;20041;-77
2022/07/30 02:36:31;;;;;;;5.85;1.63;;;14.70;99.90;;;13.60;100.00;101410.72;5000765;28;20710;-77
2022/07/30 02:38:59;;;;;;;5.05;1.52;;;14.60;99.90;;;13.56;100.00;101414.44;4967285;28;20057;-78
2022/07/30 02:41:32;;;;;;;3.05;1.98;;;14.60;99.90;;;13.54;100.00;101416.28;4989374;28;20128;-78
2022/07/30 02:43:59;;;;;;;5.35;1.85;;;14.60;99.90;;;13.48;100.00;101416.63;4967994;28;20062;-77
2022/07/30 02:46:26;;;;;;;6.30;1.88;;;14.50;99.90;;;13.45;100.00;101417.59;4982646;28;20026;-78
2022/07/30 02:48:55;;;;;;;5.30;1.92;;;14.50;99.90;;;13.39;100.00;101417.91;4982530;28;20040;-77
2022/07/30 02:51:26;;;;;;;5.53;2.00;;;14.40;99.90;;;13.34;100.00;101417.25;4968564;28;20422;-77
2022/07/30 02:53:53;;;;;;;6.18;1.98;;;14.40;99.90;;;13.28;100.00;101415.78;4933781;28;20955;-77
2022/07/30 02:56:21;;;;;;;4.78;2.10;;;14.40;99.90;;;13.28;100.00;101413.13;4969347;23;20105;-77
2022/07/30 02:58:48;;;;;;;7.00;1.88;;;14.40;99.90;;;13.29;100.00;101417.47;4904277;28;20034;-77
2022/07/30 03:01:18;;;;;;;9.50;2.25;;;14.30;99.90;;;13.26;100.00;101412.31;4906908;28;20039;-78
2022/07/30 03:03:45;;;;;;;3.95;2.00;;;14.30;99.90;;;13.19;100.00;101416.16;4922536;28;20144;-77
2022/07/30 03:06:14;;;;;;;5.50;1.67;;;14.30;99.90;;;13.16;100.00;101416.31;4913681;28;20052;-79
2022/07/30 03:08:44;;;;;;;6.05;1.85;;;14.30;99.90;;;13.19;100.00;101410.84;4942922;28;20041;-80
2022/07/30 03:11:12;;;;;;;3.65;1.83;;;14.30;99.90;;;13.20;100.00;101412.59;4947494;28;20039;-77
2022/07/30 03:13:39;;;;;;;10.18;1.80;;;14.30;99.90;;;13.25;100.00;101415.88;4922661;28;20169;-77
2022/07/30 03:16:13;;;;;;;6.82;1.88;;;14.30;99.90;;;13.27;100.00;101416.66;4962425;23;20042;-78
2022/07/30 03:18:41;;;;;;;7.38;1.95;;;14.30;99.90;;;13.26;100.00;101424.66;4977426;28;20033;-78
2022/07/30 03:21:10;;;;;;;6.22;1.65;;;14.30;99.90;;;13.26;100.00;101428.19;4996102;28;20143;-79
2022/07/30 03:23:41;;;;;;;8.40;1.83;;;14.30;99.90;;;13.26;100.00;101427.28;4966229;28;20049;-78
2022/07/30 03:26:10;;;;;;;5.22;1.90;;;14.30;99.90;;;13.28;100.00;101423.72;5003724;28;20038;-78
2022/07/30 03:28:38;;;;;;;4.68;1.83;;;14.30;99.90;;;13.33;100.00;101423.47;4987220;28;20029;-78
2022/07/30 03:31:15;;;;;;;5.50;1.92;;;14.30;99.90;;;13.33;100.00;101426.97;4938229;28;20060;-77
2022/07/30 03:33:42;;;;;;;8.05;1.48;;;14.30;99.90;;;13.36;100.00;101433.06;4958594;28;20502;-77
2022/07/30 03:36:13;;;;;;;5.13;1.77;;;14.40;99.90;;;13.40;100.00;101421.41;4997437;28;20049;-80
2022/07/30 03:38:41;;;;;;;9.52;2.00;;;14.40;99.90;;;13.43;100.00;101423.88;4958233;28;20044;-80
2022/07/30 03:41:07;;;;;;;3.55;1.85;;;14.40;99.90;;;13.52;100.00;101416.38;4990483;28;20041;-78
2022/07/30 03:43:34;;;;;;;7.32;1.85;;;14.50;99.90;;;13.58;100.00;101424.94;4999938;28;20038;-77
2022/07/30 03:46:06;;;;;;;4.85;1.80;;;14.50;99.90;;;13.66;100.00;101422.81;5010500;28;20030;-77
2022/07/30 03:48:34;;;;;;;5.38;1.80;;;14.60;99.90;;;13.72;100.00;101420.72;4960402;28;20073;-78
2022/07/30 03:51:03;;;;;;;3.92;2.00;;;14.70;99.90;;;13.83;100.00;101417.53;4975315;28;20119;-77
2022/07/30 03:53:34;;;;;;;3.17;1.40;;;14.70;99.90;;;13.89;100.00;101417.25;4954310;28;20044;-78
2022/07/30 03:56:00;;;;;;;6.03;1.58;;;14.80;99.90;;;14.02;100.00;101416.66;4948504;23;20092;-77
2022/07/30 03:58:26;;;;;;;7.07;1.77;;;14.80;99.90;;;14.10;100.00;101420.63;4955004;28;20095;-78
2022/07/30 04:00:52;;;;;;;9.40;2.33;;;15.00;99.90;;;14.25;100.00;101412.81;4975696;28;20441;-77
2022/07/30 04:03:30;;;;;;;4.50;1.60;;;15.10;99.90;;;14.39;100.00;101415.63;4978895;28;20096;-78
2022/07/30 04:05:56;;;;;;;4.03;1.60;;;15.30;99.90;;;14.59;100.00;101419.06;4968912;28;20034;-77
2022/07/30 04:08:23;;;;;;;2.38;1.63;;;15.40;99.90;;;14.74;100.00;101418.25;4962981;28;20662;-77
2022/07/30 04:10:53;;;;;;;7.07;1.85;;;15.80;99.90;;;15.36;100.00;101429.03;4987713;28;20049;-79
2022/07/30 04:13:19;;;;;;;6.55;2.00;;;16.90;99.90;;;16.67;100.00;101430.28;4954328;28;20033;-77
2022/07/30 04:15:50;;;;;;;3.60;1.63;;;18.00;99.90;;;17.92;91.53;101443.75;4930837;23;20096;-78
2022/07/30 04:18:21;;;;;;;3.97;1.50;;;18.70;99.90;;;18.72;85.17;101436.53;4928786;28;20073;-77
2022/07/30 04:20:50;;;;;;;6.65;1.65;;;19.70;99.90;;;19.90;78.64;101451.25;4954847;28;20226;-79
2022/07/30 04:23:18;;;;;;;10.43;1.75;;;21.00;99.90;;;21.55;71.54;101446.53;4924470;28;20041;-78
2022/07/30 04:25:47;;;;;;;5.55;1.20;;;22.30;99.90;;;22.99;65.41;101439.69;4924458;28;20558;-77
2022/07/30 04:28:18;;;;;;;4.70;1.45;;;23.30;99.90;;;23.84;61.99;101451.84;4920330;28;20098;-79
2022/07/30 04:30:45;;;;;;;3.85;1.20;;;24.40;99.90;;;25.29;58.79;101449.00;4934226;28;20051;-78
2022/07/30 04:33:13;;;;;;;7.85;1.20;;;25.00;99.90;;;25.46;57.47;101456.28;4944825;28;20046;-78
2022/07/30 04:35:41;;;;;;;5.03;1.70;;;25.50;99.90;;;26.02;55.92;101465.16;4946518;28;20035;-77
2022/07/30 04:38:09;;;;;;;4.10;1.48;;;25.80;99.90;;;26.13;55.26;101472.16;4933173;28;20042;-79
2022/07/30 04:40:35;;;;;;;8.15;1.17;;;26.50;99.90;;;27.67;52.21;101467.84;4920590;28;20451;-78
2022/07/30 04:43:00;;;;;;;9.27;1.50;;;27.40;99.60;;;29.02;49.23;101471.03;4943177;28;20047;-78
2022/07/30 04:45:26;;;;;;;;;;;27.50;99.30;;;30.43;47.28;101480.91;4927464;28;20470;-79
2022/07/30 04:47:52;;;;;;;6.78;1.27;;;29.10;94.80;;;30.59;45.38;101474.50;4939733;28;19918;-78
2022/07/30 04:50:23;;;;;;;5.95;1.35;;;29.10;94.10;;;29.92;45.65;101475.22;4921435;28;20039;-77
2022/07/30 04:52:51;;;;;;;5.07;1.58;;;29.20;93.30;;;29.93;45.63;101488.59;4929266;28;20035;-78
2022/07/30 04:55:19;;;;;;;5.32;1.50;;;29.10;93.10;;;29.71;45.15;101489.41;4958861;23;20717;-78
2022/07/30 04:57:50;;;;;;;2.22;1.20;;;28.60;93.20;;;29.29;45.70;101487.91;4973865;28;20043;-77
2022/07/30 05:00:17;;;;;;;6.63;1.40;;;28.30;93.20;;;28.93;46.32;101488.34;4982800;28;20035;-77
2022/07/30 05:02:45;;;;;;;4.90;1.15;;;28.70;94.20;;;30.51;43.86;101501.75;4972643;28;20124;-79
2022/07/30 05:05:13;;;;;;;3.25;1.30;;;29.10;93.00;;;31.03;42.65;101492.72;4938819;28;20095;-78
2022/07/30 05:07:46;;;;;;;9.32;1.63;;;29.30;91.70;;;30.43;42.00;101500.78;4969725;28;20552;-79
2022/07/30 05:10:13;;;;;;;8.80;1.75;;;29.40;92.60;;;31.04;41.87;101508.03;4966467;28;20038;-78
2022/07/30 05:12:39;;;;;;;6.28;1.40;;;29.40;91.90;;;30.57;42.40;101503.72;4949826;28;20068;-78
2022/07/30 05:15:09;;;;;;;2.33;1.27;;;28.90;92.40;;;28.73;44.71;101499.56;4983739;23;20767;-77
2022/07/30 05:17:36;;;;;;;4.05;1.13;;;27.70;93.90;;;26.45;49.75;101495.88;4936257;28;20034;-77
2022/07/30 05:20:04;;;;;;;2.30;1.30;;;26.50;94.50;;;24.72;53.53;101492.16;4969527;28;20309;-78
2022/07/30 05:22:30;;;;;;;35.28;2.50;;;25.40;96.40;;;23.74;56.45;101491.28;4952769;28;20042;-77
2022/07/30 05:24:59;;;;;;;2.20;1.15;;;24.30;97.70;;;22.65;59.50;101488.25;4947155;28;21102;-77
2022/07/30 05:27:27;;;;;;;3.85;1.48;;;23.80;99.00;;;22.81;59.54;101495.88;4964380;28;20041;-77
2022/07/30 05:29:53;;;;;;;5.68;1.60;;;23.30;99.80;;;22.40;60.50;101496.72;4964587;28;20075;-78
2022/07/30 05:32:19;;;;;;;6.25;1.17;;;23.10;99.90;;;22.63;60.27;101492.91;4987449;28;20040;-78
2022/07/30 05:34:45;;;;;;;2.25;1.20;;;22.80;99.90;;;22.47;60.87;101490.69;4989453;28;20038;-78
2022/07/30 05:37:11;;;;;;;5.80;1.30;;;22.80;99.90;;;22.65;60.47;101492.78;4969580;28;20108;-77
2022/07/30 05:39:39;;;;;;;5.72;1.23;;;22.90;99.90;;;23.01;59.58;101491.47;4967406;28;20803;-78
2022/07/30 05:42:05;;;;;;;3.50;1.00;;;23.00;99.90;;;22.86;59.73;101490.09;4974016;28;20038;-77
2022/07/30 05:44:31;;;;;;;4.93;1.00;;;22.90;99.90;;;22.70;60.48;101504.84;4960298;28;20064;-78
2022/07/30 05:46:56;;;;;;;3.05;1.15;;;22.90;99.90;;;22.96;60.11;101503.56;4966910;28;20041;-78
2022/07/30 05:49:22;;;;;;;2.20;1.20;;;23.10;99.90;;;23.38;58.72;101493.59;5005469;28;20037;-77
2022/07/30 05:51:49;;;;;;;3.88;1.00;;;23.30;99.90;;;23.63;57.84;101491.38;4986502;28;20112;-78
2022/07/30 05:54:15;;;;;;;2.50;0.85;;;23.30;99.90;;;23.77;57.18;101493.72;4992595;28;20461;-78
2022/07/30 05:56:41;;;;;;;2.65;1.00;;;23.70;99.90;;;24.26;56.29;101499.16;4945924;28;20042;-78
2022/07/30 05:59:09;;;;;;;1.98;1.13;;;24.00;99.90;;;25.02;54.75;101504.56;4975589;28;20037;-77
2022/07/30 06:01:34;;;;;;;1.60;0.82;;;24.40;99.70;;;25.63;52.86;101499.63;4961945;28;20141;-77
2022/07/30 06:04:00;;;;;;;1.77;0.85;;;24.60;98.70;;;25.27;52.82;101488.75;4934896;28;20476;-77
2022/07/30 06:06:26;;;;;;;3.70;0.80;;;24.80;98.30;;;25.34;52.91;101488.00;4991298;28;20029;-77
2022/07/30 06:08:52;;;;;;;1.20;0.80;;;24.90;97.90;;;25.41;52.05;101490.94;4955373;28;20536;-78
2022/07/30 06:11:18;;;;;;;4.85;0.90;;;24.90;98.20;;;25.43;52.10;101502.44;4977563;28;20498;-77
2022/07/30 06:13:46;;;;;;;5.53;1.13;;;25.00;98.10;;;25.55;52.01;101508.47;4972867;28;20116;-77
2022/07/30 06:16:12;;;;;;;5.00;1.05;;;25.10;97.80;;;25.41;52.18;101499.03;4973229;28;20495;-78
2022/07/30 06:18:38;;;;;;;4.10;0.95;;;25.30;97.90;;;25.74;51.83;101508.34;4960972;28;20053;-78
2022/07/30 06:21:04;;;;;;;;;;;25.30;98.40;;;25.74;51.87;101518.28;4974137;28;20414;-78
2022/07/30 06:23:30;;;;;;;7.10;1.10;;;25.40;97.60;;;25.55;51.67;101512.03;4949669;28;19925;-78
2022/07/30 06:25:56;;;;;;;;;;;25.20;96.30;;;24.76;52.95;101509.75;4962189;28;20261;-77
2022/07/30 06:28:22;;;;;;;3.92;0.70;;;25.10;97.20;;;24.78;53.37;101510.44;4937642;28;19913;-78
2022/07/30 06:30:50;;;;;;;2.55;0.80;;;24.90;96.90;;;24.53;53.65;101509.22;4947559;28;20038;-78
2022/07/30 06:33:16;;;;;;;5.32;0.80;;;24.60;97.00;;;23.91;54.78;101500.56;4954684;28;20557;-78
2022/07/30 06:35:42;;;;;;;2.85;0.90;;;24.40;97.80;;;23.88;54.93;101506.19;4962394;28;20042;-77
2022/07/30 06:38:08;;;;;;;6.10;1.00;;;24.30;97.60;;;23.70;55.46;101501.47;4988386;28;20054;-78
2022/07/30 06:40:34;;;;;;;;;;;24.30;98.50;;;23.14;55.94;101505.53;4970425;28;20034;-77
2022/07/30 06:43:00;;;;;;;6.32;1.00;;;23.80;98.10;;;23.14;56.46;101505.53;4952758;28;19921;-77
2022/07/30 06:45:25;;;;;;;2.88;1.10;;;23.70;98.30;;;23.12;56.53;101507.50;4993544;28;20026;-78
2022/07/30 06:47:55;;;;;;;5.45;0.80;;;23.60;98.40;;;22.90;57.10;101510.31;4978454;28;20034;-77
2022/07/30 06:50:21;;;;;;;7.93;0.93;;;23.40;98.80;;;22.85;57.46;101507.16;4981008;28;20443;-78
2022/07/30 06:52:47;;;;;;;10.02;1.15;;;23.30;98.80;;;22.75;57.75;101501.75;4950406;28;20057;-78
2022/07/30 06:55:13;;;;;;;6.90;0.90;;;23.20;98.80;;;22.58;57.78;101499.66;4948743;28;20044;-77
2022/07/30 06:57:38;;;;;;;4.50;0.80;;;23.00;98.70;;;22.23;58.62;101506.19;4987122;28;20175;-78
2022/07/30 07:00:06;;;;;;;4.60;0.88;;;22.90;98.90;;;21.90;59.38;101507.97;4991086;28;20024;-77
2022/07/30 07:02:34;;;;;;;6.68;0.90;;;22.60;99.90;;;21.81;60.23;101506.88;5000431;28;20120;-77
2022/07/30 07:05:00;;;;;;;5.18;0.90;;;22.50;99.80;;;21.78;60.30;101501.78;4951380;28;20443;-77
2022/07/30 07:07:26;;;;;;;3.72;0.82;;;22.50;99.90;;;21.96;60.53;101503.94;4983367;28;20036;-77
2022/07/30 07:09:52;;;;;;;1.40;0.60;;;22.50;99.90;;;22.04;60.29;101496.94;4980413;28;20034;-77
2022/07/30 07:12:18;;;;;;;2.78;0.88;;;22.60;99.90;;;22.27;60.08;101496.91;4976313;28;20033;-77
2022/07/30 07:14:45;;;;;;;4.35;1.15;;;22.70;99.90;;;22.43;59.80;101481.19;5006541;28;20449;-77
2022/07/30 07:17:11;;;;;;;5.88;0.80;;;22.90;99.90;;;22.59;59.34;101488.81;4975197;28;20038;-76
2022/07/30 07:19:37;;;;;;;3.80;0.77;;;23.10;99.90;;;22.88;59.25;101488.13;5001190;28;20037;-77
2022/07/30 07:22:03;;;;;;;4.28;0.98;;;23.40;99.90;;;23.43;58.39;101485.13;4978899;28;20030;-77
2022/07/30 07:24:29;;;;;;;;;;;23.50;99.90;;;23.44;57.82;101490.38;4975409;28;20147;-78
2022/07/30 07:26:59;;;;;;;3.90;0.95;;;23.70;99.40;;;23.39;57.59;101486.38;4992018;28;19921;-77
2022/07/30 07:29:25;;;;;;;2.50;0.70;;;23.70;99.60;;;23.21;58.48;101484.34;4949299;28;20047;-78
2022/07/30 07:31:51;;;;;;;2.20;0.88;;;23.80;98.80;;;23.34;57.18;101489.47;4985897;28;20037;-77
2022/07/30 07:34:17;;;;;;;0.80;0.80;;;24.00;99.10;;;23.68;56.34;101487.31;4941336;28;20052;-78
2022/07/30 07:36:43;;;;;;;2.53;0.80;;;24.00;98.50;;;23.57;56.58;101491.97;4981112;28;20034;-81
2022/07/30 07:39:09;;;;;;;4.88;0.95;;;24.20;99.00;;;23.87;56.33;101491.91;4954333;28;20640;-76
2022/07/30 07:41:39;;;;;;;;;;;24.20;99.10;;;23.52;55.42;101492.34;5001585;28;20038;-77
2022/07/30 07:44:05;;;;;;;3.25;0.80;;;24.10;97.80;;;23.50;56.50;101487.13;4972927;28;19972;-75
2022/07/30 07:46:32;;;;;;;3.55;0.90;;;24.40;98.20;;;24.08;55.38;101497.19;4978691;28;20116;-79
2022/07/30 07:48:58;;;;;;;3.75;1.00;;;24.70;98.20;;;24.78;54.07;101499.69;4996334;28;20033;-75
2022/07/30 07:51:23;;;;;;;3.33;1.00;;;25.00;97.90;;;24.94;53.84;101499.06;4960989;28;20437;-77
2022/07/30 07:53:49;;;;;;;2.13;1.05;;;25.10;97.50;;;24.83;54.37;101492.00;4995400;28;20068;-76
2022/07/30 07:56:15;;;;;;;5.97;0.80;;;25.50;97.80;;;25.37;53.73;101501.16;4962041;28;20494;-75
2022/07/30 07:58:45;;;;;;;8.45;0.90;;;25.70;97.20;;;25.28;53.46;101494.00;4981281;28;20038;-75
2022/07/30 08:01:10;;;;;;;5.63;0.80;;;25.80;96.70;;;25.28;53.12;101501.22;4956142;28;20030;-77
2022/07/30 08:03:36;;;;;;;8.57;1.15;;;25.70;97.10;;;25.34;53.68;101506.03;4970024;28;20568;-77
2022/07/30 08:06:02;;;;;;;3.88;0.80;;;25.80;97.00;;;25.60;53.23;101518.81;4996554;28;20033;-78
2022/07/30 08:08:28;;;;;;;1.17;0.80;;;26.10;96.10;;;25.93;51.57;101523.59;5000735;28;20041;-78
2022/07/30 08:10:54;;;;;;;6.47;0.80;;;26.40;96.20;;;26.30;50.49;101516.34;4973622;28;20034;-76
2022/07/30 08:13:20;;;;;;;5.15;1.08;;;26.30;94.70;;;25.85;50.59;101519.91;4993535;28;20039;-77
2022/07/30 08:15:45;;;;;;;3.90;0.90;;;26.70;95.40;;;26.60;50.02;101520.50;4972234;28;20041;-76
2022/07/30 08:18:11;;;;;;;2.97;0.98;;;27.10;95.10;;;27.07;49.00;101513.91;4979489;28;20499;-77
2022/07/30 08:20:38;;;;;;;4.03;1.17;;;27.30;94.70;;;27.35;48.63;101514.56;4980756;28;20037;-76
2022/07/30 08:23:05;;;;;;;5.82;0.73;;;27.50;93.80;;;27.30;47.58;101525.00;4962706;28;20042;-78
2022/07/30 08:25:31;;;;;;;3.47;0.80;;;27.80;93.90;;;27.94;47.28;101520.84;4984769;28;20104;-76
2022/07/30 08:27:59;;;;;;;2.88;0.80;;;28.00;93.40;;;27.88;47.35;101520.69;4980038;28;20035;-77
2022/07/30 08:30:25;;;;;;;15.82;1.20;;;28.10;93.10;;;28.01;46.78;101524.63;4969238;28;20038;-78
2022/07/30 08:32:51;;;;;;;5.32;1.20;;;27.70;92.60;;;26.80;48.50;101519.31;4954340;28;20043;-77
2022/07/30 08:35:17;;;;;;;2.65;0.80;;;27.90;93.40;;;27.69;47.55;101524.47;4985734;28;20039;-77
2022/07/30 08:37:43;;;;;;;2.25;1.00;;;28.10;93.40;;;27.82;47.02;101527.59;4952489;28;20049;-77
2022/07/30 08:40:10;;;;;;;6.70;1.05;;;28.20;93.10;;;28.12;46.38;101531.56;4972756;28;20442;-78
2022/07/30 08:42:36;;;;;;;7.35;1.00;;;28.30;92.20;;;28.17;46.32;101531.06;4951502;28;20108;-78
2022/07/30 08:45:12;;;;;;;2.20;0.82;;;28.40;92.80;;;28.28;46.86;101538.84;4973102;28;20560;-77
2022/07/30 08:47:43;;;;;;;5.22;1.00;;;28.20;92.30;;;27.32;47.98;101533.81;4966923;28;20241;-77
2022/07/30 08:50:10;;;;;;;7.05;1.02;;;28.10;92.50;;;27.55;47.90;101526.81;4971667;28;20038;-77
2022/07/30 08:52:37;;;;;;;2.00;1.00;;;28.10;93.60;;;27.05;48.67;101534.84;4989611;28;20060;-76
2022/07/30 08:55:07;;;;;;;8.82;1.02;;;27.70;92.70;;;26.83;48.29;101538.91;5011934;28;20037;-77
2022/07/30 08:57:34;;;;;;;2.53;0.80;;;27.30;92.50;;;26.39;48.68;101535.19;4995677;28;20064;-77
2022/07/30 09:00:01;;;;;;;4.93;1.00;;;27.10;91.90;;;26.05;48.92;101532.31;4970178;28;20042;-76
2022/07/30 09:02:30;;;;;;;3.00;1.00;;;26.60;92.00;;;25.57;49.10;101518.13;4980873;28;20113;-77
2022/07/30 09:04:57;;;;;;;3.35;0.88;;;26.60;92.80;;;25.68;50.03;101521.59;4951292;28;20057;-77
2022/07/30 09:07:24;;;;;;;10.18;1.13;;;26.30;93.30;;;25.75;49.99;101515.44;4978365;28;20101;-77
2022/07/30 09:09:51;;;;;;;4.85;1.05;;;26.40;93.40;;;25.91;49.52;101517.50;4999086;28;20030;-76
2022/07/30 09:12:41;;;;;;;7.45;0.90;;;26.30;94.00;;;25.28;49.96;101512.84;4973069;28;20042;-77
2022/07/30 09:15:14;;;;;;;5.45;1.33;;;26.00;94.20;;;25.15;51.38;101505.06;5013888;28;20045;-76
2022/07/30 09:18:01;;;;;;;5.38;1.10;;;26.20;93.90;;;25.37;50.76;101516.50;4992700;28;20034;-76
2022/07/30 09:20:32;;;;;;;3.53;1.00;;;26.10;93.80;;;25.55;49.91;101511.16;4952992;28;20031;-77
2022/07/30 09:23:01;;;;;;;2.55;1.15;;;26.30;94.10;;;25.86;49.55;101525.19;4999420;28;20038;-77
2022/07/30 09:25:48;;;;;;;3.47;1.10;;;26.20;93.50;;;25.62;50.11;101527.59;4990669;28;20038;-77
2022/07/30 09:28:29;;;;;;;3.13;0.90;;;26.10;93.30;;;25.42;49.85;101519.63;4986716;28;20041;-77
2022/07/30 09:30:59;;;;;;;2.70;1.02;;;26.20;94.30;;;25.48;49.86;101521.69;5001928;28;20049;-77
2022/07/30 09:33:45;;;;;;;6.25;1.05;;;26.20;93.70;;;25.46;49.70;101514.75;5003673;28;20164;-77
2022/07/30 09:36:17;;;;;;;1.45;0.88;;;26.10;94.00;;;25.46;50.77;101510.22;4992057;28;20037;-77
2022/07/30 09:38:50;;;;;;;4.00;1.00;;;26.20;93.60;;;25.54;49.64;101509.47;4999039;28;20027;-77
2022/07/30 09:41:40;;;;;;;2.70;0.98;;;26.20;92.80;;;25.31;49.47;101509.88;4980005;28;20056;-77
2022/07/30 09:44:06;;;;;;;7.00;1.15;;;26.20;93.00;;;25.48;48.79;101515.47;4984149;28;20422;-79
2022/07/30 09:46:50;;;;;;;4.85;1.08;;;26.20;92.60;;;25.61;48.16;101521.34;4954932;28;20638;-77
2022/07/30 09:49:28;;;;;;;1.67;0.80;;;26.10;93.10;;;25.56;48.11;101518.25;5007200;28;20026;-77
2022/07/30 09:51:55;;;;;;;9.63;1.20;;;26.30;92.60;;;25.79;47.43;101521.41;4961212;28;20089;-77
2022/07/30 09:54:23;;;;;;;7.88;1.00;;;26.50;91.70;;;26.17;46.70;101520.28;4988596;28;20060;-77
2022/07/30 09:57:09;;;;;;;5.50;1.10;;;26.70;92.80;;;26.39;46.38;101521.69;4963975;28;20052;-78
2022/07/30 09:59:35;;;;;;;5.82;1.13;;;26.90;92.40;;;26.48;47.43;101522.59;4960269;28;20042;-77
2022/07/30 10:02:05;;;;;;;8.02;0.88;;;26.80;91.80;;;26.07;47.21;101524.06;4958171;28;20045;-78
2022/07/30 10:04:36;;;;;;;2.35;1.00;;;26.40;92.20;;;25.57;48.73;101523.50;4967527;28;20046;-78
2022/07/30 10:07:06;;;;;;;4.65;1.08;;;26.60;93.10;;;26.16;48.82;101524.00;4978777;28;20038;-77
2022/07/30 10:09:36;;;;;;;4.53;1.00;;;26.70;93.00;;;26.02;47.84;101518.28;4978530;28;20034;-77
2022/07/30 10:12:04;;;;;;;2.10;1.00;;;26.80;92.00;;;26.37;47.89;101517.41;4984334;28;20113;-76
2022/07/30 10:14:40;;;;;;;4.55;1.23;;;26.90;92.70;;;26.56;47.26;101536.16;4963733;28;20176;-77
2022/07/30 10:17:09;;;;;;;2.67;1.10;;;27.00;91.90;;;26.54;46.52;101540.88;4998109;28;20128;-78
2022/07/30 10:19:38;;;;;;;6.85;1.38;;;26.70;91.80;;;25.92;47.88;101527.31;4984127;28;20549;-79
2022/07/30 10:22:09;;;;;;;3.03;1.05;;;26.70;92.50;;;26.21;47.35;101520.81;4998455;28;20691;-76